Le Grand, Iowa
Current Conditions -  °F | °C
As of 11:53 PM on Wednesday 22 Oct 2014 (Local Time) from KMIW Reporting Station
Overcast Overcast  
Wind Chill: 52°   Ceiling: 7500
Heat Index: 52°   Visibility: 10mi
Dew Point: 42°   Wind: 9mph
Humidity: 69%   Direction: 150°SSE
Pressure: 30.1"   Gusts: NA
Location:  42.01°N, 92.78°W
Report Text: KMIW 230453Z AUTO 15008KT 10SM BKN075 OVC095 11/06 A3010 RMK AO2 SLP194 T01110056
Loading
Personal Weather Stations






























Interactive Weather Map
Tropical Storm Tracking
New forecast layout! Learn more

10-Day Weather Forecast

Advertisements
Track Severe Weather on mobile